Time;durP1;ratioP1;P1;durP2;ratioP2;P2;SDS_P1;SDS_P2;PMS_P1;PMS_P2;Temp;Humidity;BMP_temperature;BMP_pressure;BME280_temperature;BME280_humidity;BME280_pressure;Samples;Min_cycle;Max_cycle;Signal;HPM_P1;HPM_P2
2024/04/02 00:01:04;;;;;;;5.30;4.80;;;13.80;99.90;;;;;;4992190;28;20570;-73
2024/04/02 00:03:30;;;;;;;7.82;7.03;;;13.80;99.90;;;;;;4993198;28;20222;-73
2024/04/02 00:05:57;;;;;;;7.00;3.87;;;13.80;99.90;;;;;;4992754;28;20230;-73
2024/04/02 00:08:23;;;;;;;13.13;9.82;;;13.80;99.90;;;;;;4990889;28;20545;-72
2024/04/02 00:10:53;;;;;;;3.20;2.90;;;13.80;99.90;;;;;;4993941;28;20303;-74
2024/04/02 00:13:19;;;;;;;4.10;3.80;;;13.80;99.90;;;;;;4978154;28;20545;-73
2024/04/02 00:15:48;;;;;;;6.30;5.43;;;13.80;99.90;;;;;;4980940;28;20561;-74
2024/04/02 00:18:15;;;;;;;3.30;3.00;;;13.80;99.90;;;;;;4982000;28;20475;-75
2024/04/02 00:20:43;;;;;;;4.28;3.47;;;13.80;99.90;;;;;;4981658;28;20474;-73
2024/04/02 00:23:09;;;;;;;4.07;3.67;;;13.90;99.90;;;;;;4981789;28;20238;-74
2024/04/02 00:25:36;;;;;;;4.20;2.78;;;13.90;99.90;;;;;;4984492;28;20496;-73
2024/04/02 00:28:05;;;;;;;4.07;3.78;;;13.80;99.90;;;;;;4985223;28;20574;-73
2024/04/02 00:30:36;;;;;;;4.35;3.13;;;13.80;99.90;;;;;;4984698;28;20852;-74
2024/04/02 00:33:04;;;;;;;5.95;2.97;;;13.80;99.90;;;;;;4984381;28;20238;-73
2024/04/02 00:35:31;;;;;;;2.63;2.42;;;13.90;99.90;;;;;;4984959;28;20606;-73
2024/04/02 00:37:57;;;;;;;3.58;3.22;;;13.90;99.90;;;;;;4983759;28;20235;-74
2024/04/02 00:40:24;;;;;;;3.00;2.50;;;13.90;99.90;;;;;;4984580;28;20224;-74
2024/04/02 00:42:50;;;;;;;9.03;7.93;;;13.90;99.90;;;;;;4984775;28;20478;-74
2024/04/02 00:45:18;;;;;;;9.80;7.57;;;13.90;99.90;;;;;;4984532;28;20477;-74
2024/04/02 00:47:45;;;;;;;8.75;7.15;;;13.90;99.90;;;;;;4984618;28;20545;-74
2024/04/02 00:50:15;;;;;;;5.33;2.67;;;13.90;99.90;;;;;;4983957;28;20218;-73
2024/04/02 00:52:42;;;;;;;3.10;2.80;;;13.90;99.90;;;;;;4984433;28;20477;-74
2024/04/02 00:55:09;;;;;;;5.47;3.20;;;13.90;99.90;;;;;;4984179;28;20461;-74
2024/04/02 00:57:35;;;;;;;5.90;4.67;;;13.90;99.90;;;;;;4984593;28;20475;-74
2024/04/02 01:00:04;;;;;;;9.33;7.30;;;14.00;99.90;;;;;;4983945;28;20466;-74
2024/04/02 01:02:29;;;;;;;11.82;10.65;;;13.90;99.90;;;;;;4984236;28;20564;-74
2024/04/02 01:04:56;;;;;;;5.47;4.87;;;14.00;99.90;;;;;;4983452;28;20239;-72
2024/04/02 01:07:24;;;;;;;14.23;7.40;;;14.00;99.90;;;;;;4984313;28;20480;-73
2024/04/02 01:09:53;;;;;;;5.07;4.57;;;14.00;99.90;;;;;;4983546;28;20493;-73
2024/04/02 01:12:19;;;;;;;40.42;27.20;;;14.00;99.90;;;;;;4983505;28;20462;-73
2024/04/02 01:14:46;;;;;;;6.00;5.40;;;14.00;99.90;;;;;;4984111;28;20229;-73
2024/04/02 01:17:12;;;;;;;7.17;6.47;;;14.00;99.90;;;;;;4983711;28;20797;-73
2024/04/02 01:19:40;;;;;;;7.35;6.70;;;14.00;99.90;;;;;;4982305;28;20533;-73
2024/04/02 01:22:06;;;;;;;19.70;14.33;;;13.90;99.90;;;;;;4982935;28;20238;-73
2024/04/02 01:24:35;;;;;;;4.20;3.90;;;13.90;99.90;;;;;;4983871;28;20478;-74
2024/04/02 01:27:02;;;;;;;20.03;15.60;;;13.90;99.90;;;;;;4980923;28;20494;-74
2024/04/02 01:29:29;;;;;;;8.05;7.25;;;13.80;99.90;;;;;;4976282;28;20466;-73
2024/04/02 01:31:55;;;;;;;7.43;6.83;;;13.80;99.90;;;;;;4976535;28;20234;-72
2024/04/02 01:34:22;;;;;;;4.90;4.33;;;13.80;99.90;;;;;;4974943;28;20816;-73
2024/04/02 01:36:48;;;;;;;3.92;3.53;;;13.80;99.90;;;;;;4975788;28;20471;-73
2024/04/02 01:39:15;;;;;;;7.73;6.17;;;13.80;99.90;;;;;;4975669;28;20222;-72
2024/04/02 01:41:41;;;;;;;4.83;4.20;;;13.80;99.90;;;;;;4975971;28;20485;-73
2024/04/02 01:44:09;;;;;;;4.40;3.30;;;13.80;99.90;;;;;;4975656;28;20467;-73
2024/04/02 01:46:35;;;;;;;4.87;4.47;;;13.80;99.90;;;;;;4975974;28;20471;-73
2024/04/02 01:49:02;;;;;;;3.17;2.97;;;13.80;99.90;;;;;;4975568;28;20953;-73
2024/04/02 01:51:28;;;;;;;2.58;2.38;;;13.80;99.90;;;;;;4976260;28;20467;-73
2024/04/02 01:53:55;;;;;;;5.30;4.80;;;13.80;99.90;;;;;;4975527;28;20223;-73
2024/04/02 01:56:21;;;;;;;5.22;4.72;;;13.80;99.90;;;;;;4975762;28;20223;-72
2024/04/02 01:58:48;;;;;;;3.23;3.03;;;13.80;99.90;;;;;;4975919;28;20223;-73
2024/04/02 02:01:15;;;;;;;6.05;2.80;;;13.80;99.90;;;;;;4975548;28;20478;-72
2024/04/02 02:03:42;;;;;;;2.90;2.60;;;13.80;99.90;;;;;;4976020;28;20235;-72
2024/04/02 02:06:08;;;;;;;12.17;8.00;;;13.70;99.90;;;;;;4975068;28;20228;-74
2024/04/02 02:08:35;;;;;;;4.20;3.27;;;13.70;99.90;;;;;;4975811;28;20802;-73
2024/04/02 02:11:03;;;;;;;3.23;2.93;;;13.80;99.90;;;;;;4975278;28;20478;-74
2024/04/02 02:13:30;;;;;;;3.03;2.37;;;13.80;99.90;;;;;;4975778;28;20467;-74
2024/04/02 02:16:00;;;;;;;5.30;2.10;;;13.80;99.90;;;;;;4975073;28;20471;-74
2024/04/02 02:18:30;;;;;;;2.60;2.40;;;13.90;99.90;;;;;;4975616;28;20465;-74
2024/04/02 02:20:56;;;;;;;11.10;9.93;;;13.90;99.90;;;;;;4975193;28;20481;-74
2024/04/02 02:23:26;;;;;;;3.60;3.30;;;13.90;99.90;;;;;;4974614;28;20473;-73
2024/04/02 02:25:53;;;;;;;9.35;4.45;;;13.90;99.90;;;;;;4975353;28;20471;-73
2024/04/02 02:28:20;;;;;;;3.57;3.27;;;13.90;99.90;;;;;;4974990;28;20294;-74
2024/04/02 02:30:46;;;;;;;10.97;8.47;;;13.80;99.90;;;;;;4975295;28;20892;-74
2024/04/02 02:33:13;;;;;;;5.67;5.27;;;13.90;99.90;;;;;;4974300;28;20545;-74
2024/04/02 02:35:40;;;;;;;3.13;2.93;;;13.90;99.90;;;;;;4975237;28;20478;-72
2024/04/02 02:38:07;;;;;;;6.60;5.40;;;13.90;99.90;;;;;;4974785;28;21043;-72
2024/04/02 02:40:33;;;;;;;10.40;7.80;;;13.90;99.90;;;;;;4975424;28;20466;-72
2024/04/02 02:43:00;;;;;;;2.17;1.90;;;13.80;99.90;;;;;;4974723;28;20830;-73
2024/04/02 02:45:26;;;;;;;2.30;2.10;;;13.80;99.90;;;;;;4974865;28;20478;-73
2024/04/02 02:48:00;;;;;;;6.27;5.77;;;13.90;99.90;;;;;;4975031;28;20474;-73
2024/04/02 02:50:29;;;;;;;3.33;3.07;;;13.80;99.90;;;;;;4974735;28;20466;-73
2024/04/02 02:52:57;;;;;;;3.50;2.77;;;13.80;99.90;;;;;;4975007;28;20542;-72
2024/04/02 02:55:23;;;;;;;3.73;1.60;;;13.70;99.90;;;;;;4974538;28;20465;-72
2024/04/02 02:57:50;;;;;;;3.63;3.27;;;13.70;99.90;;;;;;4973965;28;20478;-72
2024/04/02 03:00:25;;;;;;;4.83;4.10;;;13.70;99.90;;;;;;4974189;28;20485;-72
2024/04/02 03:02:50;;;;;;;12.33;8.60;;;13.70;99.90;;;;;;4964687;28;20976;-72
2024/04/02 03:05:17;;;;;;;2.87;2.60;;;13.70;99.90;;;;;;4974030;28;20570;-72
2024/04/02 03:07:43;;;;;;;2.35;2.03;;;13.70;99.90;;;;;;4974853;28;20470;-73
2024/04/02 03:10:13;;;;;;;5.50;4.35;;;13.60;99.90;;;;;;4974309;28;20307;-73
2024/04/02 03:12:39;;;;;;;1.73;1.63;;;13.60;99.90;;;;;;4974718;28;20234;-73
2024/04/02 03:15:06;;;;;;;2.30;1.97;;;13.60;99.90;;;;;;4974446;28;20466;-73
2024/04/02 03:17:32;;;;;;;8.80;7.90;;;13.60;99.90;;;;;;4974373;28;20482;-73
2024/04/02 03:19:59;;;;;;;11.50;8.10;;;13.50;99.90;;;;;;4974622;28;20471;-73
2024/04/02 03:22:25;;;;;;;4.33;3.93;;;13.50;99.90;;;;;;4974087;28;20474;-72
2024/04/02 03:24:53;;;;;;;7.50;5.97;;;13.50;99.90;;;;;;4974618;28;20500;-73
2024/04/02 03:27:21;;;;;;;6.37;5.13;;;13.50;99.90;;;;;;4973905;28;20490;-73
2024/04/02 03:29:48;;;;;;;5.25;4.75;;;13.40;99.90;;;;;;4974440;28;20478;-74
2024/04/02 03:32:15;;;;;;;5.77;4.93;;;13.50;99.90;;;;;;4973959;28;20230;-74
2024/04/02 03:34:42;;;;;;;3.00;2.80;;;13.50;99.90;;;;;;4974351;28;20506;-73
2024/04/02 03:37:09;;;;;;;13.17;10.30;;;13.50;99.90;;;;;;4974393;28;20496;-73
2024/04/02 03:39:36;;;;;;;2.77;2.57;;;13.50;99.90;;;;;;4974394;28;20913;-73
2024/04/02 03:42:03;;;;;;;66.28;46.92;;;13.50;99.90;;;;;;4974211;28;20957;-73
2024/04/02 03:44:31;;;;;;;6.13;4.70;;;13.50;99.90;;;;;;4974065;28;20231;-73
2024/04/02 03:46:57;;;;;;;10.37;9.10;;;13.60;99.90;;;;;;4974261;28;20471;-73
2024/04/02 03:49:24;;;;;;;10.80;8.53;;;13.60;99.90;;;;;;4973710;28;20469;-73
2024/04/02 03:51:50;;;;;;;8.23;7.07;;;13.60;99.90;;;;;;4974472;28;20475;-73
2024/04/02 03:54:17;;;;;;;5.23;4.73;;;13.60;99.90;;;;;;4973729;28;20540;-72
2024/04/02 03:56:43;;;;;;;9.90;8.57;;;13.60;99.90;;;;;;4974167;28;20471;-73
2024/04/02 03:59:10;;;;;;;5.40;4.43;;;13.60;99.90;;;;;;4977085;28;20231;-72
2024/04/02 04:01:40;;;;;;;4.33;3.80;;;13.70;99.90;;;;;;4977653;28;20459;-73
2024/04/02 04:04:07;;;;;;;3.30;3.00;;;13.60;99.90;;;;;;4978089;28;20467;-72
2024/04/02 04:06:33;;;;;;;6.30;5.47;;;13.60;99.90;;;;;;4976862;28;20467;-74
2024/04/02 04:09:00;;;;;;;3.20;3.00;;;13.60;99.90;;;;;;4977937;28;20467;-74
2024/04/02 04:11:26;;;;;;;3.60;3.30;;;13.60;99.90;;;;;;4977564;28;20485;-74
2024/04/02 04:13:53;;;;;;;6.53;5.37;;;13.60;99.90;;;;;;4977868;28;20223;-74
2024/04/02 04:16:19;;;;;;;23.92;18.08;;;13.60;99.90;;;;;;4977223;28;20553;-74
2024/04/02 04:18:47;;;;;;;4.53;4.13;;;13.60;99.90;;;;;;4978067;28;20222;-73
2024/04/02 04:21:13;;;;;;;4.03;2.77;;;13.60;99.90;;;;;;4977804;28;20239;-74
2024/04/02 04:23:40;;;;;;;2.83;2.63;;;13.50;99.90;;;;;;4977396;28;20458;-73
2024/04/02 04:26:09;;;;;;;4.00;3.43;;;13.60;99.90;;;;;;4977579;28;20466;-74
2024/04/02 04:28:36;;;;;;;11.27;8.00;;;13.60;99.90;;;;;;4977318;28;20458;-73
2024/04/02 04:31:03;;;;;;;8.57;4.57;;;13.50;99.90;;;;;;4977602;28;20231;-74
2024/04/02 04:33:31;;;;;;;3.50;3.20;;;13.60;99.90;;;;;;4977303;28;20485;-73
2024/04/02 04:35:59;;;;;;;4.83;4.00;;;13.60;99.90;;;;;;4977418;28;20475;-74
2024/04/02 04:38:28;;;;;;;3.88;3.58;;;13.50;99.90;;;;;;4976805;28;20475;-73
2024/04/02 04:40:54;;;;;;;5.03;3.73;;;13.60;99.90;;;;;;4977571;28;20219;-73
2024/04/02 04:43:21;;;;;;;3.80;3.25;;;13.50;99.90;;;;;;4976964;28;20478;-73
2024/04/02 04:45:50;;;;;;;7.57;4.10;;;13.50;99.90;;;;;;4977200;28;20235;-74
2024/04/02 04:48:18;;;;;;;5.10;4.60;;;13.50;99.90;;;;;;4976925;28;20233;-73
2024/04/02 04:50:57;;;;;;;5.83;4.93;;;13.40;99.90;;;;;;4976576;28;20239;-74
2024/04/02 04:53:25;;;;;;;13.43;10.45;;;13.50;99.90;;;;;;4976764;28;20493;-73
2024/04/02 04:55:58;;;;;;;5.33;4.80;;;13.40;99.90;;;;;;4977282;28;20555;-74
2024/04/02 04:58:25;;;;;;;5.82;4.00;;;13.40;99.90;;;;;;4976521;28;20505;-74
2024/04/02 05:00:51;;;;;;;5.17;4.30;;;13.50;99.90;;;;;;4976776;28;20230;-73
2024/04/02 05:03:18;;;;;;;4.00;3.60;;;13.50;99.90;;;;;;4977072;28;20463;-73
2024/04/02 05:05:44;;;;;;;21.60;15.30;;;13.40;99.90;;;;;;4976426;28;20455;-73
2024/04/02 05:08:26;;;;;;;8.63;6.87;;;13.50;99.90;;;;;;4976755;28;20916;-73
2024/04/02 05:10:53;;;;;;;24.85;16.35;;;13.50;99.90;;;;;;4975151;28;20533;-73
2024/04/02 05:13:20;;;;;;;9.57;6.43;;;13.50;99.90;;;;;;4976834;28;20222;-73
2024/04/02 05:15:47;;;;;;;4.23;3.93;;;13.40;99.90;;;;;;4976182;28;20478;-73
2024/04/02 05:18:14;;;;;;;11.40;8.75;;;13.40;99.90;;;;;;4976476;28;20550;-73
2024/04/02 05:20:40;;;;;;;8.23;7.20;;;13.40;99.90;;;;;;4976215;28;20223;-73
2024/04/02 05:23:11;;;;;;;8.17;7.20;;;13.40;99.90;;;;;;4976427;28;20465;-73
2024/04/02 05:25:38;;;;;;;9.70;8.40;;;13.50;99.90;;;;;;4975945;28;20479;-73
2024/04/02 05:28:06;;;;;;;14.47;12.37;;;13.50;99.90;;;;;;4976584;28;20467;-73
2024/04/02 05:30:32;;;;;;;4.75;4.22;;;13.50;99.90;;;;;;4974931;28;20475;-75
2024/04/02 05:33:02;;;;;;;7.50;6.70;;;13.60;99.90;;;;;;4976294;28;20565;-73
2024/04/02 05:35:29;;;;;;;6.60;5.70;;;13.60;99.90;;;;;;4976344;28;20474;-73
2024/04/02 05:37:56;;;;;;;4.93;4.50;;;13.60;99.90;;;;;;4975294;28;20310;-74
2024/04/02 05:40:23;;;;;;;13.83;12.23;;;13.60;99.90;;;;;;4976254;28;20486;-73
2024/04/02 05:42:51;;;;;;;29.02;22.33;;;13.60;99.90;;;;;;4975782;28;20478;-73
2024/04/02 05:45:17;;;;;;;9.63;8.63;;;13.60;99.90;;;;;;4976028;28;20225;-74
2024/04/02 05:47:45;;;;;;;5.57;5.07;;;13.60;99.90;;;;;;4975618;28;20231;-73
2024/04/02 05:50:11;;;;;;;5.17;4.67;;;13.60;99.90;;;;;;4976149;28;20469;-74
2024/04/02 05:52:38;;;;;;;8.10;7.40;;;13.60;99.90;;;;;;4975418;28;20805;-74
2024/04/02 05:55:05;;;;;;;5.63;5.17;;;13.60;99.90;;;;;;4976120;28;20473;-73
2024/04/02 05:57:32;;;;;;;7.50;5.70;;;13.60;99.90;;;;;;4975929;28;20817;-73
2024/04/02 05:59:59;;;;;;;4.50;4.10;;;13.60;99.90;;;;;;4975609;28;20513;-73
2024/04/02 06:02:26;;;;;;;8.68;7.72;;;13.60;99.90;;;;;;4975942;28;20470;-73
2024/04/02 06:04:52;;;;;;;5.93;5.43;;;13.60;99.90;;;;;;4975062;28;20228;-73
2024/04/02 06:07:19;;;;;;;22.23;12.73;;;13.60;99.90;;;;;;4975505;28;20948;-73
2024/04/02 06:09:45;;;;;;;7.30;6.43;;;13.60;99.90;;;;;;4975306;28;20867;-73
2024/04/02 06:12:12;;;;;;;7.90;6.27;;;13.50;99.90;;;;;;4975571;28;20471;-73
2024/04/02 06:14:38;;;;;;;5.90;5.00;;;13.50;99.90;;;;;;4975021;28;20489;-73
2024/04/02 06:17:06;;;;;;;8.80;7.10;;;13.60;99.90;;;;;;4975568;28;20467;-73
2024/04/02 06:19:33;;;;;;;9.80;6.00;;;13.60;99.90;;;;;;4975340;28;20463;-73
2024/04/02 06:22:00;;;;;;;7.72;6.93;;;13.60;99.90;;;;;;4974636;28;20447;-73
2024/04/02 06:24:26;;;;;;;6.73;6.07;;;13.60;99.90;;;;;;4975526;28;20234;-73
2024/04/02 06:26:53;;;;;;;6.80;6.10;;;13.60;99.90;;;;;;4974695;28;20475;-73
2024/04/02 06:29:19;;;;;;;6.30;5.70;;;13.60;99.90;;;;;;4975334;28;20474;-73
2024/04/02 06:31:46;;;;;;;18.77;16.77;;;13.70;99.90;;;;;;4974907;28;20545;-73
2024/04/02 06:34:14;;;;;;;6.73;5.70;;;13.70;99.90;;;;;;4975331;28;20463;-73
2024/04/02 06:36:41;;;;;;;5.60;5.20;;;13.70;99.90;;;;;;4974861;28;20483;-74
2024/04/02 06:39:07;;;;;;;10.17;9.17;;;13.80;99.90;;;;;;4975317;28;20466;-73
2024/04/02 06:41:34;;;;;;;9.50;7.73;;;13.80;99.90;;;;;;4975126;28;20467;-74
2024/04/02 06:44:00;;;;;;;6.27;5.77;;;13.90;99.90;;;;;;4974600;28;20459;-73
2024/04/02 06:46:27;;;;;;;12.30;9.67;;;13.90;99.90;;;;;;4975017;28;20968;-73
2024/04/02 06:48:53;;;;;;;11.80;8.60;;;13.90;99.90;;;;;;4974605;28;20471;-74
2024/04/02 06:51:21;;;;;;;29.53;21.13;;;14.00;99.90;;;;;;4975190;28;20983;-73
2024/04/02 06:53:47;;;;;;;5.43;4.90;;;14.10;99.90;;;;;;4974494;28;20482;-74
2024/04/02 06:56:14;;;;;;;4.87;4.50;;;14.20;99.90;;;;;;4974789;28;20816;-74
2024/04/02 06:58:40;;;;;;;8.70;6.30;;;14.20;99.90;;;;;;4974571;28;20530;-73
2024/04/02 07:01:07;;;;;;;23.40;17.63;;;14.20;99.90;;;;;;4974941;28;20474;-73
2024/04/02 07:03:33;;;;;;;8.53;6.27;;;14.30;99.90;;;;;;4974813;28;20474;-73
2024/04/02 07:06:00;;;;;;;19.47;17.33;;;14.30;99.90;;;;;;4973932;28;20530;-73
2024/04/02 07:08:28;;;;;;;10.60;5.57;;;14.40;99.90;;;;;;4974620;28;20820;-73
2024/04/02 07:11:02;;;;;;;9.20;4.70;;;14.40;99.90;;;;;;4974461;28;20805;-73
2024/04/02 07:13:28;;;;;;;9.10;6.70;;;14.50;99.90;;;;;;4974730;28;20475;-73
2024/04/02 07:15:55;;;;;;;5.67;3.37;;;14.40;99.90;;;;;;4974048;28;20467;-73
2024/04/02 07:18:21;;;;;;;4.73;4.20;;;14.40;99.90;;;;;;4974908;28;20485;-73
2024/04/02 07:20:58;;;;;;;7.63;6.10;;;14.40;99.90;;;;;;4974086;28;20466;-73
2024/04/02 07:23:24;;;;;;;20.53;13.90;;;14.40;99.90;;;;;;4974590;28;20870;-73
2024/04/02 07:25:53;;;;;;;4.93;3.80;;;14.50;99.90;;;;;;4974099;28;20582;-73
2024/04/02 07:28:19;;;;;;;6.30;3.63;;;14.50;99.90;;;;;;4974511;28;20482;-73
2024/04/02 07:30:46;;;;;;;4.47;3.97;;;14.50;99.90;;;;;;4974016;28;20463;-74
2024/04/02 07:33:12;;;;;;;6.13;4.13;;;14.60;99.90;;;;;;4973682;28;20466;-74
2024/04/02 07:35:42;;;;;;;3.93;3.63;;;14.60;99.90;;;;;;4974561;28;21004;-73
2024/04/02 07:38:08;;;;;;;4.10;3.80;;;14.60;99.90;;;;;;4973960;28;20462;-74
2024/04/02 07:40:35;;;;;;;4.20;3.80;;;14.70;99.90;;;;;;4974485;28;20485;-74
2024/04/02 07:43:03;;;;;;;7.97;5.77;;;14.70;99.90;;;;;;4973897;28;20470;-73
2024/04/02 07:45:30;;;;;;;5.53;4.97;;;14.80;99.90;;;;;;4974043;28;20483;-74
2024/04/02 07:47:56;;;;;;;6.20;5.67;;;14.90;99.90;;;;;;4973673;28;20478;-74
2024/04/02 07:50:23;;;;;;;4.63;3.70;;;14.90;99.90;;;;;;4974250;28;20971;-73
2024/04/02 07:52:50;;;;;;;3.60;2.97;;;14.90;99.90;;;;;;4973490;28;20486;-73
2024/04/02 07:55:17;;;;;;;9.03;6.27;;;14.90;99.90;;;;;;4974272;28;20498;-74
2024/04/02 07:57:43;;;;;;;5.53;5.00;;;15.00;99.90;;;;;;4974226;28;20475;-73
2024/04/02 08:00:13;;;;;;;5.37;4.87;;;15.00;99.90;;;;;;4973685;28;20465;-74
2024/04/02 08:02:39;;;;;;;3.93;3.63;;;15.00;99.90;;;;;;4974492;28;20471;-73
2024/04/02 08:05:06;;;;;;;11.43;10.23;;;15.00;99.90;;;;;;4973637;28;20482;-73
2024/04/02 08:07:32;;;;;;;4.67;3.70;;;15.00;99.90;;;;;;4974079;28;20900;-73
2024/04/02 08:10:03;;;;;;;4.03;3.63;;;15.10;99.90;;;;;;4973663;28;20555;-73
2024/04/02 08:12:28;;;;;;;5.00;3.30;;;15.10;99.90;;;;;;4974088;28;20824;-73
2024/04/02 08:14:55;;;;;;;6.20;3.83;;;15.10;99.90;;;;;;4973545;28;20467;-73
2024/04/02 08:17:23;;;;;;;4.53;3.40;;;15.10;99.90;;;;;;4974117;28;20473;-73
2024/04/02 08:19:50;;;;;;;7.03;3.40;;;15.20;99.90;;;;;;4973586;28;20477;-74
2024/04/02 08:22:18;;;;;;;3.17;2.80;;;15.20;99.90;;;;;;4974020;28;20485;-73
2024/04/02 08:24:45;;;;;;;5.43;3.37;;;15.20;99.90;;;;;;4974038;28;20477;-73
2024/04/02 08:27:11;;;;;;;4.80;4.10;;;15.30;99.90;;;;;;4973315;28;20451;-74
2024/04/02 08:29:38;;;;;;;4.93;3.77;;;15.30;99.90;;;;;;4973966;28;20481;-74
2024/04/02 08:32:07;;;;;;;5.73;4.20;;;15.30;99.90;;;;;;4973538;28;20809;-73
2024/04/02 08:34:35;;;;;;;5.63;3.53;;;15.40;99.90;;;;;;4973892;28;20968;-74
2024/04/02 08:37:01;;;;;;;4.83;3.40;;;15.50;99.90;;;;;;4973455;28;20485;-73
2024/04/02 08:39:28;;;;;;;6.03;4.90;;;15.50;99.90;;;;;;4973910;28;20466;-73
2024/04/02 08:41:59;;;;;;;3.83;3.20;;;15.60;99.90;;;;;;4973341;28;20506;-74
2024/04/02 08:44:26;;;;;;;4.23;3.83;;;15.60;99.90;;;;;;4975461;28;20533;-74
2024/04/02 08:46:52;;;;;;;13.33;9.87;;;15.70;99.90;;;;;;4976671;28;20973;-74
2024/04/02 08:49:20;;;;;;;10.07;8.57;;;15.70;99.90;;;;;;4977282;28;20458;-74
2024/04/02 08:51:49;;;;;;;4.10;3.00;;;15.70;99.90;;;;;;4977709;28;20478;-73
2024/04/02 08:54:16;;;;;;;4.57;2.40;;;15.70;99.90;;;;;;4976857;28;20473;-74
2024/04/02 08:56:42;;;;;;;3.00;2.67;;;15.80;99.90;;;;;;4977000;28;20470;-74
2024/04/02 08:59:10;;;;;;;5.40;2.97;;;15.90;99.90;;;;;;4976661;28;20471;-74
2024/04/02 09:01:36;;;;;;;7.03;5.97;;;15.90;99.90;;;;;;4977200;28;20804;-73
2024/04/02 09:04:04;;;;;;;4.70;2.93;;;16.00;99.90;;;;;;4976411;28;20470;-73
2024/04/02 09:06:30;;;;;;;3.60;2.30;;;16.00;99.90;;;;;;4976878;28;20471;-73
2024/04/02 09:08:58;;;;;;;4.50;4.10;;;16.00;99.90;;;;;;4976657;28;20481;-74
2024/04/02 09:11:24;;;;;;;2.63;2.40;;;15.90;99.90;;;;;;4976589;28;20978;-74
2024/04/02 09:13:51;;;;;;;3.97;2.77;;;15.90;99.90;;;;;;4976786;28;20965;-74
2024/04/02 09:16:17;;;;;;;3.50;1.83;;;15.80;99.90;;;;;;4976335;28;20465;-74
2024/04/02 09:18:45;;;;;;;3.97;1.77;;;15.80;99.90;;;;;;4976882;28;20462;-74
2024/04/02 09:21:12;;;;;;;2.27;2.07;;;15.80;99.90;;;;;;4976508;28;20497;-74
2024/04/02 09:23:39;;;;;;;5.33;3.70;;;15.90;99.90;;;;;;4976639;28;20481;-74
2024/04/02 09:26:10;;;;;;;4.70;3.13;;;15.90;99.90;;;;;;4976101;28;20513;-74
2024/04/02 09:28:39;;;;;;;2.77;1.90;;;16.00;99.90;;;;;;4976606;28;20470;-73
2024/04/02 09:31:05;;;;;;;20.77;14.03;;;16.10;99.90;;;;;;4976174;28;20478;-73
2024/04/02 09:33:34;;;;;;;2.43;1.87;;;16.10;99.90;;;;;;4976599;28;20475;-74
2024/04/02 09:36:09;;;;;;;2.60;2.23;;;16.10;99.90;;;;;;4976046;28;20467;-74
2024/04/02 09:38:37;;;;;;;4.27;2.77;;;16.10;99.90;;;;;;4976433;28;20462;-74
2024/04/02 09:41:04;;;;;;;4.13;1.87;;;16.10;99.90;;;;;;4975927;28;20470;-74
2024/04/02 09:43:35;;;;;;;2.67;2.00;;;16.10;99.90;;;;;;4976548;28;20469;-73
2024/04/02 09:46:02;;;;;;;2.10;1.90;;;16.00;99.90;;;;;;4975651;28;20475;-73
2024/04/02 09:48:33;;;;;;;2.73;1.97;;;16.00;99.90;;;;;;4976017;28;20944;-73
2024/04/02 09:51:00;;;;;;;2.87;1.77;;;16.00;99.90;;;;;;4975851;28;20474;-73
2024/04/02 09:53:32;;;;;;;3.77;2.33;;;16.00;99.90;;;;;;4975817;28;20509;-73
2024/04/02 09:55:59;;;;;;;5.07;2.43;;;16.00;99.90;;;;;;4974847;28;20533;-74
2024/04/02 09:58:26;;;;;;;2.40;1.90;;;15.90;99.90;;;;;;4975844;28;20502;-73
2024/04/02 10:00:55;;;;;;;5.43;2.23;;;15.90;99.90;;;;;;4975991;28;20470;-73
2024/04/02 10:03:26;;;;;;;3.80;2.40;;;15.90;99.90;;;;;;4975583;28;20463;-73
2024/04/02 10:05:52;;;;;;;5.23;2.07;;;15.90;99.90;;;;;;4975952;28;20499;-73
2024/04/02 10:08:25;;;;;;;4.07;2.00;;;15.90;99.90;;;;;;4974945;28;20529;-74
2024/04/02 10:10:52;;;;;;;4.90;2.30;;;15.90;99.90;;;;;;4975772;28;20537;-73
2024/04/02 10:13:20;;;;;;;5.77;4.17;;;16.00;99.90;;;;;;4975149;28;20494;-74
2024/04/02 10:15:52;;;;;;;5.70;2.43;;;15.90;99.90;;;;;;4975697;28;20961;-73
2024/04/02 10:18:22;;;;;;;5.87;3.27;;;16.00;99.90;;;;;;4975211;28;20477;-73
2024/04/02 10:20:55;;;;;;;6.43;3.90;;;16.00;99.90;;;;;;4975615;28;20972;-74
2024/04/02 10:23:28;;;;;;;3.90;2.30;;;15.90;99.90;;;;;;4975043;28;21000;-73
2024/04/02 10:25:59;;;;;;;6.40;2.67;;;15.90;99.90;;;;;;4975634;28;20467;-74
2024/04/02 10:28:26;;;;;;;4.27;3.87;;;15.90;99.90;;;;;;4974873;28;20454;-74
2024/04/02 10:30:52;;;;;;;10.53;3.10;;;15.80;99.90;;;;;;4975565;28;20814;-73
2024/04/02 10:33:25;;;;;;;6.43;3.10;;;15.90;99.90;;;;;;4974862;28;21036;-73
2024/04/02 10:35:53;;;;;;;5.23;2.50;;;15.90;99.90;;;;;;4975141;28;20467;-72
2024/04/02 10:38:20;;;;;;;7.50;3.40;;;15.90;99.90;;;;;;4974836;28;20466;-73
2024/04/02 10:40:48;;;;;;;3.00;2.23;;;16.00;99.90;;;;;;4975408;28;20471;-73
2024/04/02 10:43:15;;;;;;;3.40;2.50;;;16.00;99.90;;;;;;4974868;28;20996;-73
2024/04/02 10:45:41;;;;;;;3.80;2.43;;;16.10;99.90;;;;;;4975149;28;20471;-73
2024/04/02 10:48:11;;;;;;;5.57;2.20;;;16.10;99.90;;;;;;4974396;28;20471;-72
2024/04/02 10:50:40;;;;;;;3.60;2.90;;;16.10;99.60;;;;;;4975209;28;20801;-73
2024/04/02 10:53:07;;;;;;;4.33;2.77;;;16.00;99.70;;;;;;4974372;28;20558;-74
2024/04/02 10:55:33;;;;;;;4.13;2.30;;;16.00;99.90;;;;;;4974848;28;20521;-74
2024/04/02 10:58:02;;;;;;;9.30;4.67;;;16.00;99.90;;;;;;4974339;28;20479;-73
2024/04/02 11:00:29;;;;;;;7.53;4.37;;;16.00;99.90;;;;;;4974661;28;20490;-73
2024/04/02 11:02:55;;;;;;;1.60;1.50;;;16.00;99.90;;;;;;4974589;28;20471;-74
2024/04/02 11:05:22;;;;;;;3.03;2.03;;;16.10;99.90;;;;;;4974250;28;21073;-74
2024/04/02 11:07:50;;;;;;;2.27;2.03;;;16.10;99.90;;;;;;4974531;28;20479;-74
2024/04/02 11:10:17;;;;;;;4.30;2.60;;;16.10;99.90;;;;;;4974133;28;20471;-74
2024/04/02 11:12:43;;;;;;;4.13;1.90;;;16.10;99.80;;;;;;4974686;28;20466;-73
2024/04/02 11:15:11;;;;;;;5.93;2.20;;;16.20;99.50;;;;;;4974173;28;20478;-74
2024/04/02 11:17:38;;;;;;;5.30;2.77;;;16.20;99.30;;;;;;4974503;28;20481;-73
2024/04/02 11:20:09;;;;;;;9.00;2.27;;;16.30;99.50;;;;;;4974621;28;20486;-73
2024/04/02 11:25:22;;;;;;;4.60;2.30;;;16.30;99.10;;;;;;4974153;28;21070;-74
2024/04/02 11:27:49;;;;;;;5.23;2.33;;;16.30;98.80;;;;;;4974129;28;20494;-74
2024/04/02 11:30:20;;;;;;;5.23;1.90;;;16.30;98.80;;;;;;4974050;28;20493;-74
2024/04/02 11:32:46;;;;;;;2.03;1.43;;;16.20;98.90;;;;;;4974446;28;20503;-74
2024/04/02 11:35:15;;;;;;;2.43;1.87;;;16.20;99.00;;;;;;4973803;28;20577;-74
2024/04/02 11:37:42;;;;;;;9.60;2.40;;;16.20;99.00;;;;;;4974136;28;20475;-74
2024/04/02 11:40:11;;;;;;;2.37;2.10;;;16.20;99.20;;;;;;4974436;28;20786;-74
2024/04/02 11:42:38;;;;;;;6.03;2.67;;;16.20;99.10;;;;;;4974228;28;20812;-73
2024/04/02 11:45:07;;;;;;;6.73;3.47;;;16.30;99.40;;;;;;4974322;28;20546;-73
2024/04/02 11:47:33;;;;;;;2.80;2.60;;;16.20;99.10;;;;;;4974064;28;20474;-73
2024/04/02 11:50:01;;;;;;;4.43;2.50;;;16.30;99.40;;;;;;4974233;28;20546;-74
2024/04/02 11:52:27;;;;;;;3.57;2.87;;;16.30;99.40;;;;;;4972959;28;20475;-73
2024/04/02 11:54:54;;;;;;;4.30;1.63;;;16.30;99.50;;;;;;4974434;28;20960;-74
2024/04/02 12:00:11;;;;;;;3.67;1.90;;;16.40;98.80;;;;;;4974348;28;20805;-74
2024/04/02 12:02:38;;;;;;;4.03;3.27;;;16.40;98.80;;;;;;4973837;28;20486;-74
2024/04/02 12:05:06;;;;;;;5.03;2.60;;;16.40;99.90;;;;;;4974022;28;20483;-74
2024/04/02 12:07:33;;;;;;;4.63;2.50;;;16.30;99.90;;;;;;4973489;28;20474;-73
2024/04/02 12:10:02;;;;;;;6.97;3.77;;;16.30;99.90;;;;;;4974160;28;20486;-74
2024/04/02 12:12:29;;;;;;;4.10;2.77;;;16.30;99.90;;;;;;4973809;28;20470;-74
2024/04/02 12:14:57;;;;;;;3.43;2.00;;;16.40;99.90;;;;;;4973853;28;20466;-74
2024/04/02 12:17:24;;;;;;;4.47;2.70;;;16.40;99.90;;;;;;4973702;28;20471;-75
2024/04/02 12:19:52;;;;;;;2.80;2.43;;;16.40;99.90;;;;;;4976455;28;20479;-73
2024/04/02 12:22:18;;;;;;;4.00;2.20;;;16.40;99.90;;;;;;4977397;28;20555;-74
2024/04/02 12:24:46;;;;;;;3.20;2.90;;;16.40;99.90;;;;;;4977862;28;20466;-75
2024/04/02 12:27:12;;;;;;;4.87;4.47;;;16.30;99.90;;;;;;4977749;28;20479;-74
2024/04/02 12:29:40;;;;;;;4.93;4.43;;;16.20;99.90;;;;;;4977312;28;20470;-74
2024/04/02 12:32:07;;;;;;;4.17;3.77;;;16.20;99.90;;;;;;4977845;28;20471;-74
2024/04/02 12:34:36;;;;;;;4.07;2.83;;;16.10;99.90;;;;;;4976846;28;20467;-74
2024/04/02 12:37:03;;;;;;;4.00;2.90;;;16.00;99.90;;;;;;4977460;28;20467;-74
2024/04/02 12:39:30;;;;;;;4.00;3.37;;;16.00;99.90;;;;;;4977087;28;20471;-74
2024/04/02 12:41:57;;;;;;;4.63;4.10;;;15.90;99.90;;;;;;4977587;28;20571;-74
2024/04/02 12:44:23;;;;;;;4.10;3.70;;;15.90;99.90;;;;;;4976738;28;20541;-74
2024/04/02 12:46:50;;;;;;;11.10;8.60;;;15.90;99.90;;;;;;4977229;28;21035;-74
2024/04/02 12:49:16;;;;;;;7.80;4.60;;;15.90;99.90;;;;;;4977124;28;20471;-74
2024/04/02 12:51:44;;;;;;;3.67;3.17;;;16.00;99.90;;;;;;4977301;28;20461;-74